Kezdőlap
METAR-TAF:

METAR-TAF

Repülőterek :

Csengtu, Kína

földrajzi szélesség: 30-40N, földrajzi hosszúság: 104-01E, magasság: 508 m

Jelenlegi meteorológiai megfigyelések

A jelentés 43 perccel ezelõtt készült, 09:00 UTC
Dél-délnyugati szél 6 kt, déli és nyugati között változik
Hőmérséklet 27°C
Páratartalom 48%
Légköri nyomás 1010 hPa
Látótávolság 10 km, vagy több
felhőtlen 1500 m magasságban, és nincs gomolyfelhõ

METAR: ZUUU 280900Z 21003MPS 170V260 CAVOK 27/15 Q1010 NOSIG

Idő: 17:43 (09:43 UTC)

Előrejelzés

A jelentés 7 órával és 31 perccel ezelõtt készült, 02:12 UTC
Az előrejelzés 28-én 06 óra UTC és 29-én 06 óra UTC között érvényes
Dél-délnyugati szél 6 kt
Látótávolság: 5000 m
Szórványos felhőzet 5000 lábon
Párásság

TAF: ZUUU 280212Z 2806/2906 20003MPS 5000 BR SCT050 TX31/2807Z TN19/2822Z

Meteorológiai megfigyelések és előrejelzések több, mint 4000 repülőtéren (METAR és TAF jelentéseket).

A térképen piros és sárga pontok jelzik az elérhető meteorológiai állomásokat.

Mozgassa az egeret a pont fölött, hogy megjelenjen az állomás neve.

Azután kattintson az időjárási megfigyelések és előrejelzések megtekintéséhez.

A térkép megváltoztatása: kattintson a fekete keresztel jelölt zöld gombra ráközelítéshez, a vonallal jelölt zöld gombra távolításhoz, vagy a zöld nyilakra a szomszédos térképek eléréséhez.


METAR-TAF: